sensor_id;sensor_type;location;lat;lon;timestamp;temperature;humidity
13880;DHT22;7010;48.200;16.332;2022-08-19T00:01:29;24.20;98.30
13880;DHT22;7010;48.200;16.332;2022-08-19T00:04:03;24.20;97.90
13880;DHT22;7010;48.200;16.332;2022-08-19T00:06:33;24.30;98.30
13880;DHT22;7010;48.200;16.332;2022-08-19T00:09:04;24.30;98.30
13880;DHT22;7010;48.200;16.332;2022-08-19T00:11:33;24.20;98.30
13880;DHT22;7010;48.200;16.332;2022-08-19T00:14:05;24.20;98.60
13880;DHT22;7010;48.200;16.332;2022-08-19T00:16:35;24.20;99.00
13880;DHT22;7010;48.200;16.332;2022-08-19T00:19:04;24.20;99.60
13880;DHT22;7010;48.200;16.332;2022-08-19T00:21:33;24.20;99.90
13880;DHT22;7010;48.200;16.332;2022-08-19T00:24:07;24.10;99.90
13880;DHT22;7010;48.200;16.332;2022-08-19T00:26:37;24.10;99.90
13880;DHT22;7010;48.200;16.332;2022-08-19T00:29:10;24.10;99.90
13880;DHT22;7010;48.200;16.332;2022-08-19T00:31:39;24.10;99.90
13880;DHT22;7010;48.200;16.332;2022-08-19T00:34:08;24.10;99.90
13880;DHT22;7010;48.200;16.332;2022-08-19T00:36:39;24.00;99.90
13880;DHT22;7010;48.200;16.332;2022-08-19T00:39:08;23.90;99.90
13880;DHT22;7010;48.200;16.332;2022-08-19T00:41:36;23.90;99.90
13880;DHT22;7010;48.200;16.332;2022-08-19T00:44:09;23.90;99.90
13880;DHT22;7010;48.200;16.332;2022-08-19T00:46:42;23.90;99.90
13880;DHT22;7010;48.200;16.332;2022-08-19T00:49:26;23.80;99.90
13880;DHT22;7010;48.200;16.332;2022-08-19T00:51:57;23.80;99.90
13880;DHT22;7010;48.200;16.332;2022-08-19T00:54:29;23.80;99.90
13880;DHT22;7010;48.200;16.332;2022-08-19T00:56:58;23.80;99.90
13880;DHT22;7010;48.200;16.332;2022-08-19T00:59:29;23.70;99.90
13880;DHT22;7010;48.200;16.332;2022-08-19T01:02:17;23.60;99.90
13880;DHT22;7010;48.200;16.332;2022-08-19T01:04:46;23.60;99.90
13880;DHT22;7010;48.200;16.332;2022-08-19T01:07:15;23.50;99.90
13880;DHT22;7010;48.200;16.332;2022-08-19T01:09:45;23.50;99.90
13880;DHT22;7010;48.200;16.332;2022-08-19T01:12:14;23.40;99.90
13880;DHT22;7010;48.200;16.332;2022-08-19T01:14:45;23.30;99.90
13880;DHT22;7010;48.200;16.332;2022-08-19T01:17:14;23.30;99.90
13880;DHT22;7010;48.200;16.332;2022-08-19T01:19:44;23.30;99.90
13880;DHT22;7010;48.200;16.332;2022-08-19T01:22:18;23.30;99.90
13880;DHT22;7010;48.200;16.332;2022-08-19T01:24:57;23.30;99.90
13880;DHT22;7010;48.200;16.332;2022-08-19T01:27:26;23.30;99.90
13880;DHT22;7010;48.200;16.332;2022-08-19T01:30:04;23.30;99.90
13880;DHT22;7010;48.200;16.332;2022-08-19T01:32:33;23.30;99.90
13880;DHT22;7010;48.200;16.332;2022-08-19T01:35:03;23.30;99.90
13880;DHT22;7010;48.200;16.332;2022-08-19T01:37:42;23.40;99.90
13880;DHT22;7010;48.200;16.332;2022-08-19T01:40:12;23.30;99.90
13880;DHT22;7010;48.200;16.332;2022-08-19T01:42:40;23.40;99.90
13880;DHT22;7010;48.200;16.332;2022-08-19T01:45:10;23.30;99.90
13880;DHT22;7010;48.200;16.332;2022-08-19T01:47:39;23.40;99.90
13880;DHT22;7010;48.200;16.332;2022-08-19T01:50:09;23.40;99.90
13880;DHT22;7010;48.200;16.332;2022-08-19T01:52:37;23.30;99.90
13880;DHT22;7010;48.200;16.332;2022-08-19T01:55:09;23.30;99.90
13880;DHT22;7010;48.200;16.332;2022-08-19T01:57:40;23.30;99.90
13880;DHT22;7010;48.200;16.332;2022-08-19T02:00:12;23.30;99.90
13880;DHT22;7010;48.200;16.332;2022-08-19T02:02:42;23.30;99.90
13880;DHT22;7010;48.200;16.332;2022-08-19T02:05:11;23.20;99.90
13880;DHT22;7010;48.200;16.332;2022-08-19T02:07:40;23.20;99.90
13880;DHT22;7010;48.200;16.332;2022-08-19T02:10:11;23.10;99.90
13880;DHT22;7010;48.200;16.332;2022-08-19T02:12:44;23.10;99.90
13880;DHT22;7010;48.200;16.332;2022-08-19T02:15:13;23.00;99.90
13880;DHT22;7010;48.200;16.332;2022-08-19T02:17:42;23.10;99.90
13880;DHT22;7010;48.200;16.332;2022-08-19T02:20:12;23.10;99.90
13880;DHT22;7010;48.200;16.332;2022-08-19T02:22:41;23.20;99.90
13880;DHT22;7010;48.200;16.332;2022-08-19T02:25:11;23.20;99.90
13880;DHT22;7010;48.200;16.332;2022-08-19T02:27:41;23.30;99.90
13880;DHT22;7010;48.200;16.332;2022-08-19T02:30:13;23.30;99.90
13880;DHT22;7010;48.200;16.332;2022-08-19T02:32:42;23.30;99.90
13880;DHT22;7010;48.200;16.332;2022-08-19T02:35:12;23.30;99.90
13880;DHT22;7010;48.200;16.332;2022-08-19T02:37:41;23.20;99.90
13880;DHT22;7010;48.200;16.332;2022-08-19T02:40:26;23.20;99.90
13880;DHT22;7010;48.200;16.332;2022-08-19T02:42:55;23.20;99.90
13880;DHT22;7010;48.200;16.332;2022-08-19T02:45:24;23.20;99.90
13880;DHT22;7010;48.200;16.332;2022-08-19T02:47:53;23.10;99.90
13880;DHT22;7010;48.200;16.332;2022-08-19T02:50:21;23.10;99.90
13880;DHT22;7010;48.200;16.332;2022-08-19T02:52:49;23.10;99.90
13880;DHT22;7010;48.200;16.332;2022-08-19T02:55:18;23.00;99.90
13880;DHT22;7010;48.200;16.332;2022-08-19T02:57:47;23.10;99.90
13880;DHT22;7010;48.200;16.332;2022-08-19T03:00:16;23.00;99.90
13880;DHT22;7010;48.200;16.332;2022-08-19T03:02:46;23.10;99.90
13880;DHT22;7010;48.200;16.332;2022-08-19T03:05:15;23.10;99.90
13880;DHT22;7010;48.200;16.332;2022-08-19T03:07:50;23.10;99.90
13880;DHT22;7010;48.200;16.332;2022-08-19T03:10:19;23.10;99.90
13880;DHT22;7010;48.200;16.332;2022-08-19T03:12:47;23.10;99.90
13880;DHT22;7010;48.200;16.332;2022-08-19T03:15:15;23.10;99.90
13880;DHT22;7010;48.200;16.332;2022-08-19T03:17:43;23.10;99.90
13880;DHT22;7010;48.200;16.332;2022-08-19T03:20:13;23.10;99.90
13880;DHT22;7010;48.200;16.332;2022-08-19T03:22:41;23.10;99.90
13880;DHT22;7010;48.200;16.332;2022-08-19T03:25:10;23.10;99.90
13880;DHT22;7010;48.200;16.332;2022-08-19T03:27:38;23.10;99.90
13880;DHT22;7010;48.200;16.332;2022-08-19T03:30:07;23.10;99.90
13880;DHT22;7010;48.200;16.332;2022-08-19T03:32:37;23.20;99.90
13880;DHT22;7010;48.200;16.332;2022-08-19T03:35:24;23.20;99.90
13880;DHT22;7010;48.200;16.332;2022-08-19T03:37:52;23.20;99.90
13880;DHT22;7010;48.200;16.332;2022-08-19T03:40:21;23.10;99.90
13880;DHT22;7010;48.200;16.332;2022-08-19T03:42:49;23.10;99.90
13880;DHT22;7010;48.200;16.332;2022-08-19T03:45:18;23.10;99.90
13880;DHT22;7010;48.200;16.332;2022-08-19T03:47:46;23.10;99.90
13880;DHT22;7010;48.200;16.332;2022-08-19T03:50:14;23.10;99.90
13880;DHT22;7010;48.200;16.332;2022-08-19T03:52:48;23.10;99.90
13880;DHT22;7010;48.200;16.332;2022-08-19T03:55:16;23.10;99.90
13880;DHT22;7010;48.200;16.332;2022-08-19T03:57:45;23.20;99.90
13880;DHT22;7010;48.200;16.332;2022-08-19T04:00:15;23.10;99.90
13880;DHT22;7010;48.200;16.332;2022-08-19T04:02:44;23.20;99.90
13880;DHT22;7010;48.200;16.332;2022-08-19T04:05:26;23.20;99.90
13880;DHT22;7010;48.200;16.332;2022-08-19T04:07:57;23.20;99.90
13880;DHT22;7010;48.200;16.332;2022-08-19T04:10:26;23.20;99.90
13880;DHT22;7010;48.200;16.332;2022-08-19T04:12:55;23.20;99.90
13880;DHT22;7010;48.200;16.332;2022-08-19T04:15:23;23.10;99.90
13880;DHT22;7010;48.200;16.332;2022-08-19T04:17:51;23.10;99.90
13880;DHT22;7010;48.200;16.332;2022-08-19T04:20:19;23.10;99.90
13880;DHT22;7010;48.200;16.332;2022-08-19T04:22:48;23.10;99.90
13880;DHT22;7010;48.200;16.332;2022-08-19T04:25:18;23.10;99.90
13880;DHT22;7010;48.200;16.332;2022-08-19T04:27:46;23.10;99.90
13880;DHT22;7010;48.200;16.332;2022-08-19T04:30:15;23.10;99.90
13880;DHT22;7010;48.200;16.332;2022-08-19T04:32:44;23.20;99.90
13880;DHT22;7010;48.200;16.332;2022-08-19T04:35:12;23.20;99.90
13880;DHT22;7010;48.200;16.332;2022-08-19T04:37:44;23.20;99.90
13880;DHT22;7010;48.200;16.332;2022-08-19T04:40:12;23.20;99.90
13880;DHT22;7010;48.200;16.332;2022-08-19T04:42:59;23.30;99.90
13880;DHT22;7010;48.200;16.332;2022-08-19T04:45:28;23.30;99.90
13880;DHT22;7010;48.200;16.332;2022-08-19T04:48:09;23.40;99.90
13880;DHT22;7010;48.200;16.332;2022-08-19T04:50:53;23.40;99.90
13880;DHT22;7010;48.200;16.332;2022-08-19T04:53:24;23.50;99.90
13880;DHT22;7010;48.200;16.332;2022-08-19T04:55:55;23.50;99.90
13880;DHT22;7010;48.200;16.332;2022-08-19T04:58:26;23.50;99.90
13880;DHT22;7010;48.200;16.332;2022-08-19T05:00:55;23.50;99.90
13880;DHT22;7010;48.200;16.332;2022-08-19T05:03:23;23.50;99.90
13880;DHT22;7010;48.200;16.332;2022-08-19T05:05:56;23.40;99.90
13880;DHT22;7010;48.200;16.332;2022-08-19T05:08:25;23.40;99.90
13880;DHT22;7010;48.200;16.332;2022-08-19T05:10:57;23.40;99.90
13880;DHT22;7010;48.200;16.332;2022-08-19T05:13:27;23.50;99.90
13880;DHT22;7010;48.200;16.332;2022-08-19T05:15:56;23.50;99.90
13880;DHT22;7010;48.200;16.332;2022-08-19T05:18:25;23.60;99.90
13880;DHT22;7010;48.200;16.332;2022-08-19T05:21:15;23.60;99.90
13880;DHT22;7010;48.200;16.332;2022-08-19T05:24:01;23.60;99.90
13880;DHT22;7010;48.200;16.332;2022-08-19T05:26:30;23.50;99.90
13880;DHT22;7010;48.200;16.332;2022-08-19T05:29:00;23.40;99.90
13880;DHT22;7010;48.200;16.332;2022-08-19T05:31:28;23.30;99.90
13880;DHT22;7010;48.200;16.332;2022-08-19T05:33:57;23.20;99.90
13880;DHT22;7010;48.200;16.332;2022-08-19T05:36:25;23.20;99.90
13880;DHT22;7010;48.200;16.332;2022-08-19T05:38:54;23.20;99.90
13880;DHT22;7010;48.200;16.332;2022-08-19T05:41:22;23.10;99.90
13880;DHT22;7010;48.200;16.332;2022-08-19T05:43:56;23.10;99.90
13880;DHT22;7010;48.200;16.332;2022-08-19T05:46:25;23.00;99.90
13880;DHT22;7010;48.200;16.332;2022-08-19T05:48:54;22.90;99.90
13880;DHT22;7010;48.200;16.332;2022-08-19T05:51:23;22.90;99.90
13880;DHT22;7010;48.200;16.332;2022-08-19T05:53:55;22.90;99.90
13880;DHT22;7010;48.200;16.332;2022-08-19T05:56:23;22.90;99.90
13880;DHT22;7010;48.200;16.332;2022-08-19T05:58:52;22.80;99.90
13880;DHT22;7010;48.200;16.332;2022-08-19T06:01:26;22.90;99.90
13880;DHT22;7010;48.200;16.332;2022-08-19T06:03:54;22.90;99.90
13880;DHT22;7010;48.200;16.332;2022-08-19T06:06:23;22.90;99.90
13880;DHT22;7010;48.200;16.332;2022-08-19T06:08:51;22.90;99.90
13880;DHT22;7010;48.200;16.332;2022-08-19T06:11:22;22.90;99.90
13880;DHT22;7010;48.200;16.332;2022-08-19T06:13:53;22.90;99.90
13880;DHT22;7010;48.200;16.332;2022-08-19T06:16:27;22.90;99.90
13880;DHT22;7010;48.200;16.332;2022-08-19T06:19:02;22.80;99.90
13880;DHT22;7010;48.200;16.332;2022-08-19T06:21:30;22.70;99.90
13880;DHT22;7010;48.200;16.332;2022-08-19T06:23:59;22.70;99.90
13880;DHT22;7010;48.200;16.332;2022-08-19T06:26:28;22.80;99.90
13880;DHT22;7010;48.200;16.332;2022-08-19T06:28:56;22.80;99.90
13880;DHT22;7010;48.200;16.332;2022-08-19T06:31:27;22.80;99.90
13880;DHT22;7010;48.200;16.332;2022-08-19T06:33:56;22.90;99.90
13880;DHT22;7010;48.200;16.332;2022-08-19T06:36:27;23.00;99.90
13880;DHT22;7010;48.200;16.332;2022-08-19T06:38:59;23.00;99.90
13880;DHT22;7010;48.200;16.332;2022-08-19T06:41:28;23.00;99.90
13880;DHT22;7010;48.200;16.332;2022-08-19T06:43:57;23.10;99.90
13880;DHT22;7010;48.200;16.332;2022-08-19T06:46:27;23.10;99.90
13880;DHT22;7010;48.200;16.332;2022-08-19T06:49:00;23.30;99.90
13880;DHT22;7010;48.200;16.332;2022-08-19T06:51:31;23.40;99.90
13880;DHT22;7010;48.200;16.332;2022-08-19T06:54:08;23.60;99.90
13880;DHT22;7010;48.200;16.332;2022-08-19T06:56:46;23.70;99.90
13880;DHT22;7010;48.200;16.332;2022-08-19T06:59:16;23.80;99.90
13880;DHT22;7010;48.200;16.332;2022-08-19T07:01:48;23.80;99.90
13880;DHT22;7010;48.200;16.332;2022-08-19T07:04:19;24.00;99.90
13880;DHT22;7010;48.200;16.332;2022-08-19T07:06:50;24.10;99.90
13880;DHT22;7010;48.200;16.332;2022-08-19T07:09:21;24.20;99.90
13880;DHT22;7010;48.200;16.332;2022-08-19T07:11:52;24.30;99.90
13880;DHT22;7010;48.200;16.332;2022-08-19T07:14:22;24.30;99.90
13880;DHT22;7010;48.200;16.332;2022-08-19T07:16:55;24.50;99.90
13880;DHT22;7010;48.200;16.332;2022-08-19T07:19:26;24.60;99.90
13880;DHT22;7010;48.200;16.332;2022-08-19T07:21:55;24.70;99.90
13880;DHT22;7010;48.200;16.332;2022-08-19T07:24:25;24.80;99.90
13880;DHT22;7010;48.200;16.332;2022-08-19T07:26:58;24.90;99.90
13880;DHT22;7010;48.200;16.332;2022-08-19T07:29:35;25.10;99.90
13880;DHT22;7010;48.200;16.332;2022-08-19T07:32:05;25.20;99.90
13880;DHT22;7010;48.200;16.332;2022-08-19T07:34:39;25.40;99.90
13880;DHT22;7010;48.200;16.332;2022-08-19T07:37:08;25.40;99.90
13880;DHT22;7010;48.200;16.332;2022-08-19T07:39:38;25.70;99.90
13880;DHT22;7010;48.200;16.332;2022-08-19T07:42:08;25.80;99.90
13880;DHT22;7010;48.200;16.332;2022-08-19T07:44:40;25.90;99.90
13880;DHT22;7010;48.200;16.332;2022-08-19T07:47:18;26.10;99.90
13880;DHT22;7010;48.200;16.332;2022-08-19T07:50:09;26.10;99.90
13880;DHT22;7010;48.200;16.332;2022-08-19T07:52:38;26.30;99.90
13880;DHT22;7010;48.200;16.332;2022-08-19T07:55:07;26.50;99.90
13880;DHT22;7010;48.200;16.332;2022-08-19T07:57:56;26.90;99.90
13880;DHT22;7010;48.200;16.332;2022-08-19T08:00:25;27.30;99.90
13880;DHT22;7010;48.200;16.332;2022-08-19T08:02:55;27.60;99.90
13880;DHT22;7010;48.200;16.332;2022-08-19T08:05:23;27.90;99.90
13880;DHT22;7010;48.200;16.332;2022-08-19T08:08:10;28.30;99.90
13880;DHT22;7010;48.200;16.332;2022-08-19T08:11:12;28.80;99.90
13880;DHT22;7010;48.200;16.332;2022-08-19T08:13:41;29.10;99.90
13880;DHT22;7010;48.200;16.332;2022-08-19T08:16:10;29.40;99.90
13880;DHT22;7010;48.200;16.332;2022-08-19T08:18:41;30.00;99.90
13880;DHT22;7010;48.200;16.332;2022-08-19T08:21:19;30.60;99.50
13880;DHT22;7010;48.200;16.332;2022-08-19T08:23:47;31.10;98.40
13880;DHT22;7010;48.200;16.332;2022-08-19T08:26:18;31.30;96.30
13880;DHT22;7010;48.200;16.332;2022-08-19T08:28:47;31.60;96.00
13880;DHT22;7010;48.200;16.332;2022-08-19T08:31:15;32.00;94.70
13880;DHT22;7010;48.200;16.332;2022-08-19T08:33:47;32.30;93.40
13880;DHT22;7010;48.200;16.332;2022-08-19T08:36:15;32.60;92.30
13880;DHT22;7010;48.200;16.332;2022-08-19T08:38:45;32.80;91.90
13880;DHT22;7010;48.200;16.332;2022-08-19T08:41:18;33.00;91.40
13880;DHT22;7010;48.200;16.332;2022-08-19T08:43:51;32.90;90.10
13880;DHT22;7010;48.200;16.332;2022-08-19T08:46:24;33.00;90.10
13880;DHT22;7010;48.200;16.332;2022-08-19T08:49:02;33.20;90.80
13880;DHT22;7010;48.200;16.332;2022-08-19T08:51:34;33.60;89.80
13880;DHT22;7010;48.200;16.332;2022-08-19T08:54:06;33.80;88.10
13880;DHT22;7010;48.200;16.332;2022-08-19T08:56:37;33.90;85.40
13880;DHT22;7010;48.200;16.332;2022-08-19T08:59:19;33.60;85.60
13880;DHT22;7010;48.200;16.332;2022-08-19T09:01:48;33.30;87.50
13880;DHT22;7010;48.200;16.332;2022-08-19T09:04:18;33.00;88.70
13880;DHT22;7010;48.200;16.332;2022-08-19T09:06:54;32.90;88.90
13880;DHT22;7010;48.200;16.332;2022-08-19T09:09:28;32.60;88.00
13880;DHT22;7010;48.200;16.332;2022-08-19T09:12:05;32.80;88.90
13880;DHT22;7010;48.200;16.332;2022-08-19T09:14:45;32.70;88.80
13880;DHT22;7010;48.200;16.332;2022-08-19T09:17:19;32.90;88.30
13880;DHT22;7010;48.200;16.332;2022-08-19T09:20:03;33.40;90.20
13880;DHT22;7010;48.200;16.332;2022-08-19T09:22:36;34.30;86.60
13880;DHT22;7010;48.200;16.332;2022-08-19T09:25:05;35.00;85.50
13880;DHT22;7010;48.200;16.332;2022-08-19T09:27:36;35.40;83.20
13880;DHT22;7010;48.200;16.332;2022-08-19T09:30:11;35.80;82.70
13880;DHT22;7010;48.200;16.332;2022-08-19T09:32:40;36.20;81.00
13880;DHT22;7010;48.200;16.332;2022-08-19T09:35:13;36.50;79.00
13880;DHT22;7010;48.200;16.332;2022-08-19T09:37:42;37.00;77.20
13880;DHT22;7010;48.200;16.332;2022-08-19T09:40:11;37.20;74.90
13880;DHT22;7010;48.200;16.332;2022-08-19T09:42:41;37.30;73.20
13880;DHT22;7010;48.200;16.332;2022-08-19T09:45:18;37.70;72.50
13880;DHT22;7010;48.200;16.332;2022-08-19T09:47:48;38.00;70.40
13880;DHT22;7010;48.200;16.332;2022-08-19T09:50:22;38.10;71.00
13880;DHT22;7010;48.200;16.332;2022-08-19T09:52:51;38.40;71.20
13880;DHT22;7010;48.200;16.332;2022-08-19T09:55:24;38.50;68.90
13880;DHT22;7010;48.200;16.332;2022-08-19T09:57:58;38.40;68.80
13880;DHT22;7010;48.200;16.332;2022-08-19T10:00:26;38.40;68.90
13880;DHT22;7010;48.200;16.332;2022-08-19T10:02:55;38.50;68.40
13880;DHT22;7010;48.200;16.332;2022-08-19T10:05:24;38.60;67.20
13880;DHT22;7010;48.200;16.332;2022-08-19T10:08:15;38.50;67.30
13880;DHT22;7010;48.200;16.332;2022-08-19T10:10:44;37.60;66.00
13880;DHT22;7010;48.200;16.332;2022-08-19T10:13:15;37.10;67.50
13880;DHT22;7010;48.200;16.332;2022-08-19T10:15:44;36.80;67.70
13880;DHT22;7010;48.200;16.332;2022-08-19T10:18:15;36.40;69.30
13880;DHT22;7010;48.200;16.332;2022-08-19T10:20:47;36.10;69.60
13880;DHT22;7010;48.200;16.332;2022-08-19T10:23:19;35.90;70.90
13880;DHT22;7010;48.200;16.332;2022-08-19T10:25:48;35.30;71.50
13880;DHT22;7010;48.200;16.332;2022-08-19T10:28:17;35.10;72.10
13880;DHT22;7010;48.200;16.332;2022-08-19T10:30:45;34.50;72.10
13880;DHT22;7010;48.200;16.332;2022-08-19T10:33:14;34.30;74.70
13880;DHT22;7010;48.200;16.332;2022-08-19T10:36:07;34.00;75.10
13880;DHT22;7010;48.200;16.332;2022-08-19T10:38:36;33.50;78.50
13880;DHT22;7010;48.200;16.332;2022-08-19T10:41:17;33.10;84.40
13880;DHT22;7010;48.200;16.332;2022-08-19T10:43:46;32.60;83.50
13880;DHT22;7010;48.200;16.332;2022-08-19T10:46:15;32.00;82.10
13880;DHT22;7010;48.200;16.332;2022-08-19T10:48:45;31.40;84.50
13880;DHT22;7010;48.200;16.332;2022-08-19T10:51:17;31.10;90.60
13880;DHT22;7010;48.200;16.332;2022-08-19T10:54:13;30.50;94.80
13880;DHT22;7010;48.200;16.332;2022-08-19T10:56:41;29.80;99.10
13880;DHT22;7010;48.200;16.332;2022-08-19T10:59:26;29.30;99.90
13880;DHT22;7010;48.200;16.332;2022-08-19T11:02:03;28.80;99.90
13880;DHT22;7010;48.200;16.332;2022-08-19T11:04:32;28.10;99.90
13880;DHT22;7010;48.200;16.332;2022-08-19T11:07:04;27.70;99.90
13880;DHT22;7010;48.200;16.332;2022-08-19T11:09:37;27.40;99.90
13880;DHT22;7010;48.200;16.332;2022-08-19T11:12:07;27.00;99.90
13880;DHT22;7010;48.200;16.332;2022-08-19T11:14:37;26.70;99.90
13880;DHT22;7010;48.200;16.332;2022-08-19T11:17:06;26.50;99.90
13880;DHT22;7010;48.200;16.332;2022-08-19T11:19:35;26.20;99.90
13880;DHT22;7010;48.200;16.332;2022-08-19T11:22:08;26.00;99.90
13880;DHT22;7010;48.200;16.332;2022-08-19T11:24:41;26.00;99.90
13880;DHT22;7010;48.200;16.332;2022-08-19T11:27:10;26.00;99.90
13880;DHT22;7010;48.200;16.332;2022-08-19T11:29:38;26.10;99.90
13880;DHT22;7010;48.200;16.332;2022-08-19T11:32:08;26.20;99.90
13880;DHT22;7010;48.200;16.332;2022-08-19T11:34:37;26.60;99.90
13880;DHT22;7010;48.200;16.332;2022-08-19T11:37:07;26.80;99.90
13880;DHT22;7010;48.200;16.332;2022-08-19T11:39:36;27.30;99.90
13880;DHT22;7010;48.200;16.332;2022-08-19T11:42:06;28.00;99.90
13880;DHT22;7010;48.200;16.332;2022-08-19T11:44:48;28.30;99.90
13880;DHT22;7010;48.200;16.332;2022-08-19T11:47:17;28.60;99.90
13880;DHT22;7010;48.200;16.332;2022-08-19T11:49:45;28.70;99.90
13880;DHT22;7010;48.200;16.332;2022-08-19T11:52:15;28.70;99.90
13880;DHT22;7010;48.200;16.332;2022-08-19T11:54:44;28.60;99.90
13880;DHT22;7010;48.200;16.332;2022-08-19T11:57:12;28.80;99.90
13880;DHT22;7010;48.200;16.332;2022-08-19T11:59:48;29.50;98.40
13880;DHT22;7010;48.200;16.332;2022-08-19T12:02:16;30.30;96.80
13880;DHT22;7010;48.200;16.332;2022-08-19T12:04:45;30.90;95.50
13880;DHT22;7010;48.200;16.332;2022-08-19T12:07:15;31.40;93.30
13880;DHT22;7010;48.200;16.332;2022-08-19T12:09:44;31.60;92.10
13880;DHT22;7010;48.200;16.332;2022-08-19T12:12:14;31.30;91.80
13880;DHT22;7010;48.200;16.332;2022-08-19T12:14:43;31.10;92.40
13880;DHT22;7010;48.200;16.332;2022-08-19T12:17:13;30.90;92.00
13880;DHT22;7010;48.200;16.332;2022-08-19T12:19:42;30.60;92.10
13880;DHT22;7010;48.200;16.332;2022-08-19T12:22:10;30.50;92.00
13880;DHT22;7010;48.200;16.332;2022-08-19T12:24:40;30.40;92.30
13880;DHT22;7010;48.200;16.332;2022-08-19T12:27:09;30.50;92.20
13880;DHT22;7010;48.200;16.332;2022-08-19T12:29:38;30.80;91.50
13880;DHT22;7010;48.200;16.332;2022-08-19T12:32:08;31.00;91.30
13880;DHT22;7010;48.200;16.332;2022-08-19T12:34:38;31.10;91.70
13880;DHT22;7010;48.200;16.332;2022-08-19T12:37:07;30.90;91.80
13880;DHT22;7010;48.200;16.332;2022-08-19T12:39:37;30.80;92.30
13880;DHT22;7010;48.200;16.332;2022-08-19T12:42:07;30.70;93.00
13880;DHT22;7010;48.200;16.332;2022-08-19T12:44:36;30.60;93.40
13880;DHT22;7010;48.200;16.332;2022-08-19T12:47:08;30.20;92.70
13880;DHT22;7010;48.200;16.332;2022-08-19T12:49:37;29.80;92.70
13880;DHT22;7010;48.200;16.332;2022-08-19T12:52:22;29.60;93.10
13880;DHT22;7010;48.200;16.332;2022-08-19T12:54:51;29.40;93.00
13880;DHT22;7010;48.200;16.332;2022-08-19T12:57:24;29.20;94.00
13880;DHT22;7010;48.200;16.332;2022-08-19T13:00:00;29.10;94.60
13880;DHT22;7010;48.200;16.332;2022-08-19T13:02:31;28.90;95.70
13880;DHT22;7010;48.200;16.332;2022-08-19T13:05:06;28.80;96.30
13880;DHT22;7010;48.200;16.332;2022-08-19T13:07:36;28.70;95.90
13880;DHT22;7010;48.200;16.332;2022-08-19T13:10:07;28.50;96.10
13880;DHT22;7010;48.200;16.332;2022-08-19T13:12:36;28.60;96.40
13880;DHT22;7010;48.200;16.332;2022-08-19T13:15:06;28.40;96.70
13880;DHT22;7010;48.200;16.332;2022-08-19T13:17:38;28.30;97.40
13880;DHT22;7010;48.200;16.332;2022-08-19T13:20:08;28.00;97.50
13880;DHT22;7010;48.200;16.332;2022-08-19T13:22:37;28.00;97.90
13880;DHT22;7010;48.200;16.332;2022-08-19T13:25:07;27.90;97.90
13880;DHT22;7010;48.200;16.332;2022-08-19T13:27:38;27.80;97.90
13880;DHT22;7010;48.200;16.332;2022-08-19T13:30:08;27.80;97.60
13880;DHT22;7010;48.200;16.332;2022-08-19T13:32:54;27.80;97.40
13880;DHT22;7010;48.200;16.332;2022-08-19T13:35:45;27.80;97.40
13880;DHT22;7010;48.200;16.332;2022-08-19T13:38:16;27.80;98.20
13880;DHT22;7010;48.200;16.332;2022-08-19T13:40:44;27.80;99.20
13880;DHT22;7010;48.200;16.332;2022-08-19T13:43:14;27.60;99.90
13880;DHT22;7010;48.200;16.332;2022-08-19T13:45:50;27.40;99.80
13880;DHT22;7010;48.200;16.332;2022-08-19T13:48:21;27.40;99.90
13880;DHT22;7010;48.200;16.332;2022-08-19T13:50:50;27.20;99.90
13880;DHT22;7010;48.200;16.332;2022-08-19T13:53:18;26.90;99.90
13880;DHT22;7010;48.200;16.332;2022-08-19T13:55:47;26.80;99.90
13880;DHT22;7010;48.200;16.332;2022-08-19T13:58:18;26.80;99.90
13880;DHT22;7010;48.200;16.332;2022-08-19T14:00:47;26.90;99.90
13880;DHT22;7010;48.200;16.332;2022-08-19T14:03:16;27.00;99.90
13880;DHT22;7010;48.200;16.332;2022-08-19T14:05:44;27.10;99.90
13880;DHT22;7010;48.200;16.332;2022-08-19T14:08:13;27.20;99.90
13880;DHT22;7010;48.200;16.332;2022-08-19T14:10:41;27.30;99.90
13880;DHT22;7010;48.200;16.332;2022-08-19T14:13:14;27.30;99.90
13880;DHT22;7010;48.200;16.332;2022-08-19T14:15:45;27.40;99.90
13880;DHT22;7010;48.200;16.332;2022-08-19T14:18:15;27.60;99.90
13880;DHT22;7010;48.200;16.332;2022-08-19T14:20:44;27.70;99.70
13880;DHT22;7010;48.200;16.332;2022-08-19T14:23:12;27.90;99.00
13880;DHT22;7010;48.200;16.332;2022-08-19T14:25:41;28.00;98.80
13880;DHT22;7010;48.200;16.332;2022-08-19T14:28:10;28.20;98.40
13880;DHT22;7010;48.200;16.332;2022-08-19T14:30:38;28.30;97.80
13880;DHT22;7010;48.200;16.332;2022-08-19T14:33:08;28.40;97.80
13880;DHT22;7010;48.200;16.332;2022-08-19T14:35:36;28.50;97.90
13880;DHT22;7010;48.200;16.332;2022-08-19T14:38:06;28.60;98.10
13880;DHT22;7010;48.200;16.332;2022-08-19T14:40:34;28.80;98.40
13880;DHT22;7010;48.200;16.332;2022-08-19T14:43:04;28.90;98.30
13880;DHT22;7010;48.200;16.332;2022-08-19T14:45:36;29.00;98.20
13880;DHT22;7010;48.200;16.332;2022-08-19T14:48:08;28.70;97.30
13880;DHT22;7010;48.200;16.332;2022-08-19T14:50:45;28.50;96.80
13880;DHT22;7010;48.200;16.332;2022-08-19T14:53:13;28.50;96.30
13880;DHT22;7010;48.200;16.332;2022-08-19T14:55:44;28.30;95.60
13880;DHT22;7010;48.200;16.332;2022-08-19T14:58:13;28.30;95.80
13880;DHT22;7010;48.200;16.332;2022-08-19T15:00:56;28.20;95.90
13880;DHT22;7010;48.200;16.332;2022-08-19T15:03:27;28.20;96.50
13880;DHT22;7010;48.200;16.332;2022-08-19T15:05:56;28.20;96.70
13880;DHT22;7010;48.200;16.332;2022-08-19T15:08:25;28.10;95.10
13880;DHT22;7010;48.200;16.332;2022-08-19T15:10:54;28.20;94.90
13880;DHT22;7010;48.200;16.332;2022-08-19T15:13:22;28.10;95.20
13880;DHT22;7010;48.200;16.332;2022-08-19T15:15:51;28.10;95.30
13880;DHT22;7010;48.200;16.332;2022-08-19T15:18:20;28.10;95.30
13880;DHT22;7010;48.200;16.332;2022-08-19T15:20:50;28.10;95.60
13880;DHT22;7010;48.200;16.332;2022-08-19T15:23:20;28.00;95.40
13880;DHT22;7010;48.200;16.332;2022-08-19T15:25:49;27.90;95.50
13880;DHT22;7010;48.200;16.332;2022-08-19T15:28:22;27.90;95.60
13880;DHT22;7010;48.200;16.332;2022-08-19T15:30:52;27.90;95.50
13880;DHT22;7010;48.200;16.332;2022-08-19T15:33:20;27.70;95.90
13880;DHT22;7010;48.200;16.332;2022-08-19T15:35:50;27.80;95.60
13880;DHT22;7010;48.200;16.332;2022-08-19T15:38:19;27.70;95.90
13880;DHT22;7010;48.200;16.332;2022-08-19T15:40:52;27.70;95.90
13880;DHT22;7010;48.200;16.332;2022-08-19T15:43:41;27.80;96.00
13880;DHT22;7010;48.200;16.332;2022-08-19T15:46:09;27.70;96.00
13880;DHT22;7010;48.200;16.332;2022-08-19T15:48:42;27.80;96.00
13880;DHT22;7010;48.200;16.332;2022-08-19T15:51:23;27.80;95.80
13880;DHT22;7010;48.200;16.332;2022-08-19T15:53:52;27.90;95.90
13880;DHT22;7010;48.200;16.332;2022-08-19T15:56:21;28.00;95.90